Time;durP1;ratioP1;P1;durP2;ratioP2;P2;SDS_P1;SDS_P2;PMS_P1;PMS_P2;Temp;Humidity;BMP_temperature;BMP_pressure;BME280_temperature;BME280_humidity;BME280_pressure;Samples;Min_cycle;Max_cycle;Signal;HPM_P1;HPM_P2
2020/12/02 00:04:40;;;;;;;65.63;30.55;;;;;;;-5.02;100.00;95210.72;10482393;28;20681;-75
2020/12/02 00:09:40;;;;;;;83.18;31.23;;;;;;;-5.05;100.00;95221.53;10484362;28;20122;-75
2020/12/02 00:14:40;;;;;;;75.87;36.90;;;;;;;-5.10;100.00;95210.72;10488153;28;20139;-75
2020/12/02 00:19:41;;;;;;;90.20;41.70;;;;;;;-5.23;100.00;95220.84;10492874;28;20291;-75
2020/12/02 00:24:42;;;;;;;72.93;34.13;;;;;;;-5.30;100.00;95212.00;10492057;28;20035;-75
2020/12/02 00:29:44;;;;;;;94.50;40.05;;;;;;;-5.33;100.00;95214.00;10492798;28;20286;-75
2020/12/02 00:34:44;;;;;;;78.25;34.65;;;;;;;-5.43;100.00;95210.69;10492334;28;20032;-75
2020/12/02 00:39:45;;;;;;;74.43;34.17;;;;;;;-5.45;100.00;95204.00;10492449;28;20071;-75
2020/12/02 00:44:45;;;;;;;69.43;33.08;;;;;;;-5.44;100.00;95208.25;10494757;28;20303;-79
2020/12/02 00:49:47;;;;;;;70.82;33.00;;;;;;;-5.54;100.00;95209.22;10498749;28;20040;-78
2020/12/02 00:54:48;;;;;;;72.07;34.80;;;;;;;-5.60;100.00;95209.03;10498350;28;20501;-79
2020/12/02 00:59:54;;;;;;;66.82;34.92;;;;;;;-5.54;100.00;95211.00;10498402;28;20038;-79
2020/12/02 01:04:57;;;;;;;71.32;35.05;;;;;;;-5.72;100.00;95204.13;10497140;28;20032;-78
2020/12/02 01:09:58;;;;;;;73.70;39.80;;;;;;;-5.70;100.00;95203.97;10495666;28;20063;-78
2020/12/02 01:15:00;;;;;;;80.47;37.25;;;;;;;-5.95;100.00;95198.66;10494802;28;20045;-78
2020/12/02 01:20:00;;;;;;;82.78;35.72;;;;;;;-5.87;100.00;95197.88;10495954;28;20116;-78
2020/12/02 01:25:10;;;;;;;70.30;34.87;;;;;;;-5.86;100.00;95199.50;10494059;28;20637;-78
2020/12/02 01:30:14;;;;;;;62.10;30.13;;;;;;;-5.95;100.00;95200.47;10494331;28;20311;-78
2020/12/02 01:35:22;;;;;;;65.82;30.95;;;;;;;-5.94;100.00;95205.53;10495635;28;20041;-78
2020/12/02 01:40:24;;;;;;;;;;;;;;;-5.95;100.00;95203.09;10494859;28;20165;-78
2020/12/02 01:45:26;;;;;;;78.05;31.83;;;;;;;-5.94;100.00;95207.34;10494323;28;19916;-77
2020/12/02 01:50:39;;;;;;;66.95;32.85;;;;;;;-6.03;100.00;95209.13;10495715;28;20032;-78
2020/12/02 01:55:44;;;;;;;89.80;40.50;;;;;;;-6.05;100.00;95206.66;10492450;28;20514;-75
2020/12/02 02:00:55;;;;;;;86.97;37.92;;;;;;;-6.04;100.00;95210.94;10488579;28;20096;-77
2020/12/02 02:06:00;;;;;;;80.93;35.20;;;;;;;-6.40;100.00;95213.72;10487976;28;20032;-76
2020/12/02 02:11:04;;;;;;;78.13;37.05;;;;;;;-6.39;100.00;95206.69;10489037;28;20094;-75
2020/12/02 02:16:36;;;;;;;96.45;42.13;;;;;;;-6.63;100.00;95212.63;10489252;28;20052;-79
2020/12/02 02:21:36;;;;;;;95.15;45.13;;;;;;;-6.56;100.00;95217.09;10494870;28;20500;-79
2020/12/02 02:26:39;;;;;;;97.80;46.97;;;;;;;-6.71;100.00;95222.06;10489962;28;20039;-78
2020/12/02 02:31:49;;;;;;;106.78;52.40;;;;;;;-6.58;100.00;95221.63;10481165;28;20285;-79
2020/12/02 02:36:51;;;;;;;106.50;46.67;;;;;;;-6.53;100.00;95229.84;10490096;28;20098;-79
2020/12/02 02:42:01;;;;;;;121.55;48.65;;;;;;;-6.45;100.00;95226.44;10492266;28;20032;-79
2020/12/02 02:47:01;;;;;;;115.22;49.95;;;;;;;-6.45;100.00;95228.25;10493523;28;20478;-79
2020/12/02 02:52:02;;;;;;;114.10;51.38;;;;;;;-6.53;100.00;95224.63;10493079;28;20044;-79
2020/12/02 02:57:03;;;;;;;124.80;54.92;;;;;;;-6.43;100.00;95234.97;10493175;28;20025;-79
2020/12/02 03:02:04;;;;;;;112.20;55.50;;;;;;;-6.60;100.00;95225.38;10493209;28;20044;-78
2020/12/02 03:07:12;;;;;;;116.20;53.25;;;;;;;-6.53;100.00;95224.63;10493408;28;20029;-79
2020/12/02 03:12:12;;;;;;;;;;;;;;;-6.47;100.00;95233.63;10495873;28;20085;-78
2020/12/02 03:17:19;;;;;;;99.30;49.42;;;;;;;-6.47;100.00;95227.56;10492576;28;20019;-78
2020/12/02 03:22:22;;;;;;;115.80;49.97;;;;;;;-6.43;100.00;95218.44;10491703;28;20391;-79
2020/12/02 03:27:24;;;;;;;101.22;42.42;;;;;;;-6.23;100.00;95219.03;10492643;28;20037;-79
2020/12/02 03:32:24;;;;;;;108.80;47.72;;;;;;;-6.19;100.00;95230.81;10486742;28;20511;-79
2020/12/02 03:37:24;;;;;;;86.28;40.75;;;;;;;-6.08;100.00;95224.50;10485407;28;20033;-78
2020/12/02 03:42:25;;;;;;;71.23;33.23;;;;;;;-5.94;100.00;95229.09;10490562;28;20173;-79
2020/12/02 03:47:26;;;;;;;64.20;30.75;;;;;;;-5.91;100.00;95226.16;10491152;28;20293;-79
2020/12/02 03:52:27;;;;;;;65.57;26.42;;;;;;;-5.77;100.00;95222.09;10499447;28;20488;-79
2020/12/02 03:57:27;;;;;;;45.40;22.80;;;;;;;-5.70;100.00;95217.03;10501034;28;20090;-78
2020/12/02 04:02:28;;;;;;;38.42;15.73;;;;;;;-5.73;100.00;95222.63;10498604;28;20037;-78
2020/12/02 04:07:28;;;;;;;34.30;14.63;;;;;;;-5.77;100.00;95223.91;10493494;28;20031;-78
2020/12/02 04:12:28;;;;;;;37.03;19.33;;;;;;;-5.85;100.00;95217.69;10494111;28;20424;-74
2020/12/02 04:17:29;;;;;;;33.27;15.93;;;;;;;-5.89;100.00;95218.13;10490266;28;20070;-75
2020/12/02 04:22:29;;;;;;;41.37;19.70;;;;;;;-5.78;100.00;95223.06;10491271;28;20347;-75
2020/12/02 04:27:30;;;;;;;41.70;20.50;;;;;;;-5.87;100.00;95216.19;10491089;28;20281;-74
2020/12/02 04:32:30;;;;;;;43.90;23.20;;;;;;;-5.78;100.00;95219.66;10489400;28;20044;-76
2020/12/02 04:37:33;;;;;;;37.28;19.63;;;;;;;-5.60;100.00;95214.28;10489764;28;20506;-76
2020/12/02 04:42:43;;;;;;;47.55;23.08;;;;;;;-5.64;100.00;95220.81;10488303;28;20044;-76
2020/12/02 04:47:45;;;;;;;44.17;24.08;;;;;;;-5.60;100.00;95225.56;10492292;28;20064;-75
2020/12/02 04:52:58;;;;;;;40.63;21.05;;;;;;;-5.66;100.00;95231.47;10490772;28;20395;-76
2020/12/02 04:57:58;;;;;;;41.35;21.83;;;;;;;-5.73;100.00;95227.84;10491471;28;20880;-75
2020/12/02 05:03:11;;;;;;;36.85;17.50;;;;;;;-5.79;100.00;95231.94;10485835;28;20151;-75
2020/12/02 05:08:38;;;;;;;36.50;19.88;;;;;;;-5.79;100.00;95226.69;10490301;28;20052;-76
2020/12/02 05:13:38;;;;;;;41.05;20.30;;;;;;;-5.95;100.00;95232.69;10482098;28;20110;-75
2020/12/02 05:18:38;;;;;;;44.03;24.07;;;;;;;-6.00;100.00;95242.81;10490602;28;20082;-76
2020/12/02 05:23:39;;;;;;;45.97;25.40;;;;;;;-6.14;100.00;95248.66;10486498;28;20382;-76
2020/12/02 05:28:40;;;;;;;56.93;24.40;;;;;;;-6.20;100.00;95247.50;10489751;28;20085;-76
2020/12/02 05:33:41;;;;;;;48.55;23.90;;;;;;;-6.25;100.00;95249.75;10486097;28;20410;-77
2020/12/02 05:39:05;;;;;;;54.95;24.83;;;;;;;-6.29;100.00;95258.88;10488881;28;20029;-77
2020/12/02 05:44:18;;;;;;;54.45;25.85;;;;;;;-6.31;100.00;95269.50;10487215;28;20062;-76
2020/12/02 05:49:35;;;;;;;65.70;28.27;;;;;;;-6.32;100.00;95277.50;10488490;28;20028;-75
2020/12/02 05:54:35;;;;;;;83.15;37.63;;;;;;;-6.38;100.00;95284.19;10488461;28;20043;-76
2020/12/02 05:59:35;;;;;;;75.53;37.30;;;;;;;-6.32;100.00;95301.03;10488078;28;20711;-76
2020/12/02 06:04:36;;;;;;;77.23;35.47;;;;;;;-6.36;100.00;95298.75;10475639;28;20848;-77
2020/12/02 06:09:44;;;;;;;92.60;41.22;;;;;;;-6.32;100.00;95307.13;10446711;28;20686;-76
2020/12/02 06:14:44;;;;;;;92.32;45.42;;;;;;;-6.31;100.00;95315.78;10461232;28;20168;-74
2020/12/02 06:19:50;;;;;;;87.38;38.50;;;;;;;-6.15;100.00;95309.78;10467541;28;20703;-74
2020/12/02 06:24:50;;;;;;;104.28;44.53;;;;;;;-6.18;100.00;95310.94;10444962;28;20045;-76
2020/12/02 06:30:08;;;;;;;95.75;42.65;;;;;;;-6.07;100.00;95320.31;10443408;28;20032;-75
2020/12/02 06:35:17;;;;;;;93.80;46.22;;;;;;;-5.99;100.00;95322.16;10443546;28;20590;-74
2020/12/02 06:40:18;;;;;;;97.10;42.13;;;;;;;-5.92;100.00;95333.63;10462081;28;20044;-73
2020/12/02 06:45:36;;;;;;;93.78;42.50;;;;;;;-5.80;100.00;95329.75;10469387;28;20032;-73
2020/12/02 06:50:38;;;;;;;98.82;40.55;;;;;;;-5.51;100.00;95328.56;10482432;28;20036;-72
2020/12/02 06:55:39;;;;;;;100.68;44.28;;;;;;;-5.34;100.00;95321.56;10465524;28;20032;-72
2020/12/02 07:00:46;;;;;;;95.75;47.53;;;;;;;-5.21;100.00;95319.28;10486045;28;20040;-73
2020/12/02 07:05:50;;;;;;;95.45;43.65;;;;;;;-4.93;100.00;95318.19;10457007;28;20025;-72
2020/12/02 07:11:08;;;;;;;97.03;45.03;;;;;;;-4.82;100.00;95318.69;10463038;28;20529;-74
2020/12/02 07:16:21;;;;;;;106.47;46.35;;;;;;;-4.65;100.00;95303.78;10481429;28;20631;-72
2020/12/02 07:21:26;;;;;;;97.68;44.95;;;;;;;-4.44;100.00;95307.69;10467756;28;20041;-74
2020/12/02 07:26:28;;;;;;;89.80;43.80;;;;;;;-4.20;100.00;95311.25;10476639;28;20040;-75
2020/12/02 07:31:31;;;;;;;124.72;51.85;;;;;;;-4.10;100.00;95311.91;10480434;28;20557;-74
2020/12/02 07:36:34;;;;;;;147.85;70.30;;;;;;;-3.98;100.00;95318.44;10473141;28;20757;-73
2020/12/02 07:41:43;;;;;;;143.45;70.32;;;;;;;-3.82;100.00;95319.38;10479004;28;20147;-71
2020/12/02 07:46:46;;;;;;;139.60;63.47;;;;;;;-3.36;100.00;95314.28;10480472;28;20055;-73
2020/12/02 07:51:53;;;;;;;122.53;59.75;;;;;;;-3.22;100.00;95322.41;10474002;28;20105;-73
2020/12/02 07:56:55;;;;;;;124.43;55.65;;;;;;;-2.93;100.00;95324.34;10474353;28;20045;-73
2020/12/02 08:01:58;;;;;;;116.43;50.50;;;;;;;-2.43;100.00;95319.56;10479339;28;20040;-73
2020/12/02 08:07:11;;;;;;;99.82;49.55;;;;;;;-1.96;100.00;95317.66;10452075;28;20086;-74
2020/12/02 08:12:18;;;;;;;90.43;38.58;;;;;;;-1.52;100.00;95308.94;10478029;28;20037;-74
2020/12/02 08:17:24;;;;;;;81.25;38.00;;;;;;;-1.26;100.00;95315.50;10470631;28;20080;-74
2020/12/02 08:22:31;;;;;;;71.43;34.33;;;;;;;-0.93;100.00;95318.53;10440735;28;20952;-74
2020/12/02 08:27:32;;;;;;;78.05;35.47;;;;;;;-0.34;100.00;95316.63;10439301;28;20142;-74
2020/12/02 08:32:40;;;;;;;77.38;37.97;;;;;;;0.12;100.00;95312.72;10472485;28;20119;-74
2020/12/02 08:37:40;;;;;;;;;;;;;;;0.43;100.00;95304.38;10485360;28;20538;-75
2020/12/02 08:42:42;;;;;;;75.70;35.90;;;;;;;0.85;100.00;95299.03;10489108;28;19912;-73
2020/12/02 08:47:43;;;;;;;67.75;32.30;;;;;;;1.33;100.00;95298.97;10490703;28;20063;-73
2020/12/02 08:52:50;;;;;;;70.72;33.72;;;;;;;1.63;100.00;95300.44;10489949;28;20547;-73
2020/12/02 08:57:51;;;;;;;62.05;32.10;;;;;;;2.07;93.98;95299.00;10478947;28;20041;-71
2020/12/02 09:02:52;;;;;;;57.22;27.48;;;;;;;2.76;87.25;95296.78;10484803;28;20036;-71
2020/12/02 09:07:52;;;;;;;60.78;27.00;;;;;;;3.15;79.57;95289.66;10447749;28;20032;-71
2020/12/02 09:12:53;;;;;;;55.67;27.27;;;;;;;3.32;78.02;95283.84;10462370;28;20028;-73
2020/12/02 09:17:55;;;;;;;56.63;25.15;;;;;;;2.99;84.59;95287.53;10480871;28;20132;-73
2020/12/02 09:22:56;;;;;;;46.50;22.60;;;;;;;2.92;83.29;95266.31;10455868;28;20102;-73
2020/12/02 09:27:57;;;;;;;54.97;24.63;;;;;;;3.06;82.62;95259.88;10479227;28;20024;-74
2020/12/02 09:32:57;;;;;;;45.85;21.33;;;;;;;3.32;80.76;95257.28;10479517;28;20032;-74
2020/12/02 09:37:58;;;;;;;49.58;20.70;;;;;;;4.55;66.88;95253.13;10486274;28;20086;-74
2020/12/02 09:43:17;;;;;;;42.88;19.95;;;;;;;6.26;57.75;95236.94;10483903;28;20044;-73
2020/12/02 09:48:23;;;;;;;44.45;20.33;;;;;;;9.15;47.96;95226.41;10475836;28;20040;-74
2020/12/02 09:53:26;;;;;;;46.20;21.45;;;;;;;11.41;42.08;95200.19;10485456;28;20044;-74
2020/12/02 09:58:27;;;;;;;38.65;18.95;;;;;;;13.38;37.36;95190.66;10479256;28;20059;-76
2020/12/02 10:03:56;;;;;;;47.38;21.13;;;;;;;14.64;36.50;95178.25;10469313;28;20043;-75
2020/12/02 10:09:19;;;;;;;46.60;23.75;;;;;;;15.36;34.86;95171.13;10462288;28;20025;-75
2020/12/02 10:14:28;;;;;;;48.70;27.58;;;;;;;16.47;32.98;95163.38;10460017;28;20427;-76
2020/12/02 10:19:43;;;;;;;46.80;26.35;;;;;;;16.49;31.76;95152.22;10451365;28;20036;-76
2020/12/02 10:25:08;;;;;;;44.97;25.58;;;;;;;16.86;30.64;95134.16;10466825;28;20031;-74
2020/12/02 10:30:22;;;;;;;40.55;23.10;;;;;;;16.35;31.10;95130.50;10445021;28;20039;-74
2020/12/02 10:35:25;;;;;;;42.90;21.50;;;;;;;16.84;29.91;95128.19;10473943;28;20045;-75
2020/12/02 10:40:34;;;;;;;48.47;23.13;;;;;;;17.28;29.94;95124.03;10449340;28;20153;-72
2020/12/02 10:45:35;;;;;;;37.00;21.58;;;;;;;18.28;28.57;95111.31;10485844;28;20040;-72
2020/12/02 10:50:37;;;;;;;40.38;22.67;;;;;;;17.81;29.05;95114.38;10476216;28;20037;-72
2020/12/02 10:55:38;;;;;;;40.70;22.92;;;;;;;17.53;29.71;95106.34;10461522;28;20040;-72
2020/12/02 11:00:39;;;;;;;34.72;19.13;;;;;;;18.10;28.88;95099.53;10463550;28;20035;-71
2020/12/02 11:05:42;;;;;;;35.63;18.88;;;;;;;17.71;29.47;95101.03;10474910;28;20043;-72
2020/12/02 11:11:04;;;;;;;38.78;21.83;;;;;;;16.50;31.38;95091.44;10442073;28;20787;-72
2020/12/02 11:16:09;;;;;;;45.40;25.13;;;;;;;15.07;33.91;95106.28;10442528;28;20037;-72
2020/12/02 11:21:40;;;;;;;40.63;22.83;;;;;;;15.62;32.86;95094.91;10477533;28;20499;-72
2020/12/02 11:26:41;;;;;;;42.45;23.02;;;;;;;15.47;32.95;95091.31;10448550;28;20105;-72
2020/12/02 11:32:21;;;;;;;37.55;21.13;;;;;;;16.80;31.49;95092.72;10481946;28;20066;-72
2020/12/02 11:37:33;;;;;;;31.48;18.38;;;;;;;18.13;29.74;95074.44;10475454;28;20033;-72
2020/12/02 11:43:13;;;;;;;32.40;17.55;;;;;;;16.09;31.35;95067.81;10466526;28;20934;-72
2020/12/02 11:48:32;;;;;;;39.50;21.92;;;;;;;14.02;35.19;95086.97;10479053;28;20040;-72
2020/12/02 11:53:44;;;;;;;39.47;22.08;;;;;;;11.27;39.55;95086.88;10473425;28;20075;-71
2020/12/02 11:58:54;;;;;;;48.88;25.83;;;;;;;8.33;46.95;95095.78;10438153;28;20041;-71
2020/12/02 12:04:03;;;;;;;46.03;23.05;;;;;;;7.13;50.98;95096.22;10471193;28;20043;-71
2020/12/02 12:09:37;;;;;;;47.38;24.25;;;;;;;5.72;63.83;95098.31;10439176;28;20037;-71
2020/12/02 12:15:06;;;;;;;50.42;22.95;;;;;;;5.25;67.76;95089.28;10462346;28;20121;-72
2020/12/02 12:20:11;;;;;;;;;;;;;;;4.62;72.29;95096.78;10487814;28;20075;-71
2020/12/02 12:25:25;;;;;;;44.78;19.52;;;;;;;4.07;77.85;95084.41;10486150;28;20271;-71
2020/12/02 12:30:26;;;;;;;45.55;22.23;;;;;;;3.81;82.04;95080.22;10499997;28;20044;-71
2020/12/02 12:35:31;;;;;;;46.37;22.40;;;;;;;3.58;83.83;95084.34;10487039;28;20109;-72
2020/12/02 12:40:43;;;;;;;50.78;23.85;;;;;;;3.53;86.89;95081.56;10485680;28;20289;-71
2020/12/02 12:45:47;;;;;;;47.17;21.65;;;;;;;3.50;92.24;95084.66;10487555;28;20826;-70
2020/12/02 12:50:51;;;;;;;43.50;23.33;;;;;;;3.50;92.79;95086.47;10485204;28;20434;-70
2020/12/02 12:55:53;;;;;;;46.50;20.15;;;;;;;3.54;87.28;95095.63;10488895;28;20037;-70
2020/12/02 13:06:44;;;;;;;40.80;20.50;;;;;;;3.31;95.28;95093.59;10486979;28;20040;-72
2020/12/02 13:12:04;;;;;;;52.45;22.92;;;;;;;3.22;94.61;95090.41;10444188;28;20123;-73
2020/12/02 13:17:32;;;;;;;45.85;21.40;;;;;;;3.01;94.54;95094.28;10444126;28;20044;-72
2020/12/02 13:22:54;;;;;;;42.35;18.70;;;;;;;2.95;97.68;95090.66;10443648;28;20158;-72
2020/12/02 13:27:58;;;;;;;43.28;23.02;;;;;;;2.80;99.98;95088.31;10442364;28;20040;-72
2020/12/02 13:33:15;;;;;;;47.88;22.85;;;;;;;2.70;98.84;95085.31;10442267;28;20033;-71
2020/12/02 13:38:16;;;;;;;42.08;18.80;;;;;;;2.56;100.00;95088.06;10458409;28;20378;-71
2020/12/02 13:43:30;;;;;;;51.08;22.67;;;;;;;2.47;100.00;95081.41;10486974;28;20435;-71
2020/12/02 13:48:35;;;;;;;46.40;23.13;;;;;;;2.40;100.00;95091.22;10485156;28;20032;-72
2020/12/02 13:53:42;;;;;;;45.08;22.95;;;;;;;2.29;100.00;95081.28;10484689;28;20400;-72
2020/12/02 13:58:50;;;;;;;44.60;20.43;;;;;;;2.12;100.00;95086.25;10484439;28;20472;-72
2020/12/02 14:03:58;;;;;;;45.83;21.57;;;;;;;2.03;100.00;95083.03;10484758;28;20458;-70
2020/12/02 14:09:00;;;;;;;39.40;18.98;;;;;;;1.70;100.00;95079.50;10483407;28;20043;-71
2020/12/02 14:14:01;;;;;;;47.88;23.75;;;;;;;1.61;100.00;95077.28;10483725;28;20057;-71
2020/12/02 14:19:01;;;;;;;53.72;23.50;;;;;;;1.47;100.00;95084.47;10483823;28;20033;-71
2020/12/02 14:24:02;;;;;;;51.75;25.73;;;;;;;1.34;100.00;95079.97;10482073;28;20372;-72
2020/12/02 14:29:03;;;;;;;52.95;26.77;;;;;;;1.35;100.00;95081.63;10485381;28;20039;-72
2020/12/02 14:34:04;;;;;;;63.78;31.00;;;;;;;1.27;100.00;95076.53;10475488;28;20036;-72
2020/12/02 14:39:05;;;;;;;56.78;27.13;;;;;;;1.18;100.00;95083.88;10478693;28;20028;-72
2020/12/02 14:44:05;;;;;;;61.63;27.45;;;;;;;1.01;100.00;95083.50;10458319;28;20052;-73
2020/12/02 14:49:07;;;;;;;59.90;26.85;;;;;;;0.98;100.00;95083.91;10477822;28;20032;-72
2020/12/02 14:54:08;;;;;;;62.03;27.30;;;;;;;0.85;100.00;95093.47;10466631;28;20125;-71
2020/12/02 14:59:40;;;;;;;87.32;40.75;;;;;;;0.64;100.00;95089.19;10440741;28;20051;-71
2020/12/02 15:04:47;;;;;;;106.47;53.38;;;;;;;0.45;100.00;95101.38;10480154;28;20050;-71
2020/12/02 15:10:05;;;;;;;123.05;54.42;;;;;;;0.32;100.00;95107.44;10495307;28;20032;-71
2020/12/02 15:15:13;;;;;;;118.60;51.60;;;;;;;0.26;100.00;95099.50;10479373;28;20057;-71
2020/12/02 15:20:18;;;;;;;114.63;52.22;;;;;;;0.23;100.00;95098.06;10483556;28;20048;-70
2020/12/02 15:25:19;;;;;;;127.38;55.80;;;;;;;0.20;100.00;95100.31;10482316;28;20491;-71
2020/12/02 15:30:29;;;;;;;112.47;53.13;;;;;;;-0.03;100.00;95106.72;10482296;28;20111;-70
2020/12/02 15:35:30;;;;;;;119.28;52.67;;;;;;;0.02;100.00;95106.16;10471657;28;20041;-71
2020/12/02 15:40:34;;;;;;;114.13;49.75;;;;;;;0.02;100.00;95111.44;10473340;28;20047;-71
2020/12/02 15:45:51;;;;;;;118.63;52.88;;;;;;;0.03;100.00;95113.03;10482849;28;20599;-73
2020/12/02 15:50:56;;;;;;;123.55;52.60;;;;;;;-0.03;100.00;95117.28;10482990;28;20036;-72
2020/12/02 15:56:08;;;;;;;123.47;52.90;;;;;;;-0.05;100.00;95114.84;10485447;28;20033;-72
2020/12/02 16:01:19;;;;;;;129.15;60.75;;;;;;;-0.07;100.00;95116.03;10474790;28;20124;-72
2020/12/02 16:06:19;;;;;;;131.23;59.05;;;;;;;-0.05;100.00;95117.47;10485953;28;20059;-72
2020/12/02 16:11:20;;;;;;;131.02;58.53;;;;;;;-0.10;100.00;95116.44;10483390;28;20047;-72
2020/12/02 16:16:21;;;;;;;118.90;58.05;;;;;;;-0.24;100.00;95128.78;10471027;28;20048;-71
2020/12/02 16:21:39;;;;;;;121.55;57.90;;;;;;;-0.40;100.00;95130.72;10448212;28;20033;-72
2020/12/02 16:26:42;;;;;;;123.32;55.50;;;;;;;-0.39;100.00;95131.53;10470787;28;20036;-72
2020/12/02 16:31:43;;;;;;;115.32;52.08;;;;;;;-0.39;100.00;95139.47;10464521;28;20040;-73
2020/12/02 16:36:43;;;;;;;108.70;51.53;;;;;;;-0.39;100.00;95129.72;10474321;28;20738;-73
2020/12/02 16:42:02;;;;;;;112.85;47.88;;;;;;;-0.42;100.00;95147.78;10466760;28;20036;-73
2020/12/02 16:47:21;;;;;;;101.68;46.50;;;;;;;-0.47;100.00;95144.91;10446633;28;20779;-73
2020/12/02 16:52:40;;;;;;;;;;;;;;;-0.47;100.00;95150.19;10446505;28;20052;-73
2020/12/02 16:57:43;;;;;;;97.00;45.05;;;;;;;-0.48;100.00;95140.66;10463143;28;19986;-73
2020/12/02 17:02:48;;;;;;;115.25;48.95;;;;;;;-0.45;100.00;95153.44;10486178;28;20163;-72
2020/12/02 17:07:49;;;;;;;101.00;46.20;;;;;;;-0.41;100.00;95165.25;10472263;28;20089;-72
2020/12/02 17:13:04;;;;;;;94.00;45.58;;;;;;;-0.48;100.00;95169.69;10444599;28;20037;-72
2020/12/02 17:18:18;;;;;;;93.22;46.35;;;;;;;-0.57;100.00;95171.66;10447151;28;20131;-72
2020/12/02 17:23:40;;;;;;;107.47;49.63;;;;;;;-0.64;100.00;95176.06;10451645;28;20053;-72
2020/12/02 17:28:58;;;;;;;110.93;50.25;;;;;;;-0.83;100.00;95175.72;10442485;28;20129;-73
2020/12/02 17:34:43;;;;;;;118.93;54.83;;;;;;;-1.03;100.00;95178.22;10452150;28;20064;-72
2020/12/02 17:39:51;;;;;;;106.78;52.58;;;;;;;-1.08;100.00;95185.88;10467614;28;20036;-73
2020/12/02 17:44:55;;;;;;;126.25;57.50;;;;;;;-1.34;100.00;95183.78;10459005;28;20036;-72
2020/12/02 17:50:04;;;;;;;132.00;60.75;;;;;;;-1.37;100.00;95198.16;10443645;28;20555;-73
2020/12/02 17:55:16;;;;;;;135.90;61.22;;;;;;;-1.50;100.00;95198.03;10464892;28;20032;-73
2020/12/02 18:00:17;;;;;;;141.80;67.60;;;;;;;-1.67;100.00;95186.91;10468261;28;20032;-72
2020/12/02 18:05:31;;;;;;;142.38;70.32;;;;;;;-1.60;100.00;95191.22;10474507;28;20036;-72
2020/12/02 18:10:50;;;;;;;139.50;65.88;;;;;;;-1.40;100.00;95188.00;10461941;28;20041;-72
2020/12/02 18:15:57;;;;;;;134.50;60.97;;;;;;;-1.43;100.00;95193.66;10474074;28;20045;-72
2020/12/02 18:21:07;;;;;;;127.93;59.92;;;;;;;-1.37;100.00;95182.34;10484308;28;20044;-72
2020/12/02 18:26:31;;;;;;;131.25;57.95;;;;;;;-1.42;100.00;95190.81;10447760;28;20111;-72
2020/12/02 18:31:47;;;;;;;93.82;37.63;;;;;;;-1.32;100.00;95189.69;10463266;28;20040;-72
2020/12/02 18:37:26;;;;;;;77.05;38.42;;;;;;;-1.33;100.00;95185.44;10453302;28;20036;-72
2020/12/02 18:42:48;;;;;;;88.57;38.03;;;;;;;-1.29;100.00;95189.31;10440761;28;20169;-72
2020/12/02 18:47:55;;;;;;;87.40;39.35;;;;;;;-1.17;100.00;95184.34;10457740;28;20098;-72
2020/12/02 18:52:56;;;;;;;76.07;31.25;;;;;;;-1.17;100.00;95161.44;10462500;28;20045;-72
2020/12/02 18:58:15;;;;;;;69.50;30.30;;;;;;;-1.14;100.00;95168.16;10467604;28;20036;-72
2020/12/02 19:03:21;;;;;;;57.33;25.15;;;;;;;-1.12;100.00;95174.88;10483049;28;20032;-72
2020/12/02 19:08:27;;;;;;;52.50;23.25;;;;;;;-1.15;100.00;95177.88;10480475;28;20116;-72
2020/12/02 19:13:52;;;;;;;56.70;22.60;;;;;;;-1.23;100.00;95172.72;10480595;28;20042;-72
2020/12/02 19:18:59;;;;;;;53.28;22.42;;;;;;;-1.24;100.00;95173.75;10439995;28;20092;-73
2020/12/02 19:24:19;;;;;;;52.97;21.52;;;;;;;-1.24;100.00;95177.19;10442999;28;20087;-73
2020/12/02 19:29:37;;;;;;;60.83;27.80;;;;;;;-1.30;100.00;95185.03;10476063;28;20504;-73
2020/12/02 19:34:47;;;;;;;59.92;26.92;;;;;;;-1.36;100.00;95183.97;10438861;28;20074;-73
2020/12/02 19:40:22;;;;;;;67.82;31.80;;;;;;;-1.28;100.00;95190.97;10440167;28;20149;-72
2020/12/02 19:45:34;;;;;;;45.05;21.13;;;;;;;-1.42;100.00;95188.19;10436704;28;20048;-73
2020/12/02 19:50:37;;;;;;;83.68;43.53;;;;;;;-1.61;100.00;95201.97;10459561;28;20440;-72
2020/12/02 19:55:37;;;;;;;40.17;19.20;;;;;;;-1.67;100.00;95192.19;10481354;28;20043;-72
2020/12/02 20:00:47;;;;;;;61.60;30.75;;;;;;;-1.79;100.00;95200.53;10473955;28;20051;-72
2020/12/02 20:06:19;;;;;;;57.85;26.00;;;;;;;-1.74;100.00;95197.34;10478504;28;20119;-71
2020/12/02 20:11:40;;;;;;;76.45;39.75;;;;;;;-1.84;100.00;95202.09;10479795;28;20043;-72
2020/12/02 20:16:51;;;;;;;65.47;31.15;;;;;;;-1.95;100.00;95216.56;10466197;28;20123;-72
2020/12/02 20:22:17;;;;;;;33.95;16.35;;;;;;;-2.03;100.00;95219.28;10464725;28;20041;-72
2020/12/02 20:27:29;;;;;;;49.63;24.60;;;;;;;-1.94;100.00;95219.00;10462638;28;20064;-72
2020/12/02 20:32:33;;;;;;;41.45;16.15;;;;;;;-1.89;100.00;95216.63;10460835;28;20051;-72
2020/12/02 20:37:41;;;;;;;27.27;13.73;;;;;;;-1.77;100.00;95211.72;10448515;28;20063;-72
2020/12/02 20:42:47;;;;;;;32.43;13.13;;;;;;;-1.70;100.00;95210.97;10485030;28;20123;-72
2020/12/02 20:48:13;;;;;;;36.72;17.02;;;;;;;-1.72;100.00;95224.31;10444750;28;20041;-72
2020/12/02 20:53:32;;;;;;;46.60;19.90;;;;;;;-1.86;100.00;95233.88;10454800;28;20835;-72
2020/12/02 20:58:38;;;;;;;41.92;20.92;;;;;;;-1.89;100.00;95226.34;10481376;28;20063;-72
2020/12/02 21:03:39;;;;;;;39.75;18.42;;;;;;;-2.04;100.00;95226.34;10479235;28;20036;-72
2020/12/02 21:08:43;;;;;;;52.92;26.98;;;;;;;-2.12;100.00;95231.72;10487697;28;20043;-71
2020/12/02 21:13:44;;;;;;;55.67;29.77;;;;;;;-2.11;100.00;95228.94;10487213;28;20143;-71
2020/12/02 21:18:58;;;;;;;58.47;28.38;;;;;;;-2.19;100.00;95230.81;10486917;28;20045;-71
2020/12/02 21:24:17;;;;;;;104.53;49.50;;;;;;;-2.39;100.00;95230.53;10486295;28;20033;-71
2020/12/02 21:29:34;;;;;;;105.35;48.35;;;;;;;-2.46;100.00;95231.22;10481832;28;20123;-71
2020/12/02 21:34:37;;;;;;;100.15;46.17;;;;;;;-2.63;100.00;95235.03;10469552;28;20124;-71
2020/12/02 21:39:59;;;;;;;98.25;50.10;;;;;;;-2.75;100.00;95239.88;10444315;28;20035;-71
2020/12/02 21:45:08;;;;;;;124.20;53.20;;;;;;;-2.78;100.00;95232.34;10442571;28;20047;-71
2020/12/02 21:50:20;;;;;;;115.00;55.50;;;;;;;-2.60;100.00;95226.78;10460498;28;20044;-71
2020/12/02 21:55:33;;;;;;;132.02;57.45;;;;;;;-2.58;100.00;95235.31;10482130;28;20467;-71
2020/12/02 22:00:34;;;;;;;142.82;62.28;;;;;;;-2.78;100.00;95233.19;10485581;28;20032;-72
2020/12/02 22:05:34;;;;;;;143.48;65.53;;;;;;;-2.90;100.00;95231.16;10483250;28;20033;-71
2020/12/02 22:10:42;;;;;;;124.90;58.60;;;;;;;-2.89;100.00;95217.81;10442314;28;20166;-72
2020/12/02 22:16:16;;;;;;;139.83;57.33;;;;;;;-2.86;100.00;95217.47;10442442;28;20048;-72
2020/12/02 22:21:35;;;;;;;136.40;62.78;;;;;;;-3.13;100.00;95208.31;10443299;28;20056;-72
2020/12/02 22:26:35;;;;;;;136.02;70.05;;;;;;;-3.03;100.00;95205.44;10442260;28;20029;-73
2020/12/02 22:31:41;;;;;;;133.40;63.35;;;;;;;-2.96;100.00;95198.47;10442068;28;20044;-72
2020/12/02 22:36:50;;;;;;;134.45;61.05;;;;;;;-2.92;100.00;95191.88;10440765;28;20116;-72
2020/12/02 22:42:12;;;;;;;127.05;56.38;;;;;;;-2.77;100.00;95192.72;10442355;28;20040;-72
2020/12/02 22:47:27;;;;;;;130.00;61.42;;;;;;;-3.02;100.00;95199.19;10442967;28;20033;-71
2020/12/02 22:52:28;;;;;;;125.63;57.53;;;;;;;-3.02;100.00;95181.59;10441193;28;20114;-74
2020/12/02 22:57:30;;;;;;;130.18;55.08;;;;;;;-2.92;100.00;95176.94;10439713;28;20956;-73
2020/12/02 23:02:31;;;;;;;119.93;56.15;;;;;;;-2.94;100.00;95170.22;10440320;28;20044;-74
2020/12/02 23:07:44;;;;;;;121.85;56.72;;;;;;;-2.85;100.00;95166.50;10450589;28;20086;-73
2020/12/02 23:12:45;;;;;;;122.88;54.90;;;;;;;-2.92;100.00;95155.91;10481888;28;20407;-74
2020/12/02 23:17:56;;;;;;;115.35;53.42;;;;;;;-2.99;100.00;95157.56;10480703;28;20090;-74